Ana Sayfa
METAR-TAF:

METAR-TAF

Havaalanları :

Soekarno-Hatta Uluslararası Havalimanı

Cakarta, Java, Endonezya

Enlem: 06-07S, Boylam: 106-39E, yükseklik: 8 m

Güncel hava durumu gözlemi

Rapor saat 08:30 UTC de 27 dakika önce yapıldı.
Rüzgar batıdan 12 kt
Sıcaklık 33°C
Nem 59%
Basınç 1008 hPa
Görüş mesafesi: 9000 m
2000 ft yükseklikte parçalı bulutlu

METAR: WIII 250830Z 28012KT 9000 SCT020 33/24 Q1008 NOSIG

Saat: 15:57 (08:57 UTC)

Tahmin

Rapor saat 05:00 UTC de 3 saat ve 57 dakika önce yapıldı.
Ayın 25'si saat 06 UTC'den ayın 26'si saat 12 UTC'ye kadar geçerli Tahmin
Rüzgar batıdan 11 kt
Görüş mesafesi: 9000 m
2000 ft yükseklikte parçalı bulutlu
Geçici
ayın 25'si saat 09 UTC'den ayın 25'si saat 12 UTC'ye kadar
Görüş mesafesi: 4000 m
1800 ft yükseklikte az bulutlu, Kümülonimbus.
gök gürültülü fırtına, hafif yağmur

TAF: WIII 250500Z 2506/2612 26011KT 9000 SCT020 TEMPO 2509/2512 4000 -TSRA FEW018CB

4.000'den fazla havaalanı için hava durumu gözlemleri ve tahminleri (METAR ve TAF raporları).

Kullanılabilir istasyonlar harita üzerinde sarı ve kırmızı noktalarla gösterilir.

İstasyonun adını görmek için fareyi noktanın üzerinde gezdirin.

Sonrasında hava gözlem ve tahminlerini görmek için tıklayın.

Haritayı değiştirmek için: yaklaştırmak için siyah artı işaretli yeşil düğmeye ve uzaklaştırmak için de eksi işaretli düğmeye hızla tıklayın; bitişik haritalar için yeşil okları kullanın.


METAR-TAF: